sensor_id;sensor_type;location;lat;lon;timestamp;P1;durP1;ratioP1;P2;durP2;ratioP2
43146;SDS011;28752;48.266;7.402;2022-10-31T00:02:04;7.00;;;1.97;;
43146;SDS011;28752;48.266;7.402;2022-10-31T00:04:30;2.87;;;1.20;;
43146;SDS011;28752;48.266;7.402;2022-10-31T00:06:56;3.10;;;1.20;;
43146;SDS011;28752;48.266;7.402;2022-10-31T00:09:21;2.87;;;0.80;;
43146;SDS011;28752;48.266;7.402;2022-10-31T00:11:46;3.83;;;1.20;;
43146;SDS011;28752;48.266;7.402;2022-10-31T00:14:12;2.07;;;0.83;;
43146;SDS011;28752;48.266;7.402;2022-10-31T00:16:37;1.73;;;0.90;;
43146;SDS011;28752;48.266;7.402;2022-10-31T00:19:03;1.57;;;0.90;;
43146;SDS011;28752;48.266;7.402;2022-10-31T00:21:31;2.85;;;0.88;;
43146;SDS011;28752;48.266;7.402;2022-10-31T00:26:23;2.72;;;1.10;;
43146;SDS011;28752;48.266;7.402;2022-10-31T00:28:49;4.32;;;1.83;;
43146;SDS011;28752;48.266;7.402;2022-10-31T00:31:16;1.67;;;1.00;;
43146;SDS011;28752;48.266;7.402;2022-10-31T00:33:41;2.80;;;1.42;;
43146;SDS011;28752;48.266;7.402;2022-10-31T00:36:09;1.83;;;1.00;;
43146;SDS011;28752;48.266;7.402;2022-10-31T00:38:40;3.42;;;1.38;;
43146;SDS011;28752;48.266;7.402;2022-10-31T00:41:06;6.88;;;1.45;;
43146;SDS011;28752;48.266;7.402;2022-10-31T00:43:32;2.43;;;1.13;;
43146;SDS011;28752;48.266;7.402;2022-10-31T00:45:57;3.80;;;1.67;;
43146;SDS011;28752;48.266;7.402;2022-10-31T00:48:22;2.53;;;0.87;;
43146;SDS011;28752;48.266;7.402;2022-10-31T00:50:48;1.43;;;0.53;;
43146;SDS011;28752;48.266;7.402;2022-10-31T00:53:13;3.03;;;1.33;;
43146;SDS011;28752;48.266;7.402;2022-10-31T00:55:38;2.27;;;0.70;;
43146;SDS011;28752;48.266;7.402;2022-10-31T00:58:04;1.70;;;0.60;;
43146;SDS011;28752;48.266;7.402;2022-10-31T01:00:29;1.70;;;0.67;;
43146;SDS011;28752;48.266;7.402;2022-10-31T01:02:55;1.97;;;1.10;;
43146;SDS011;28752;48.266;7.402;2022-10-31T01:05:20;1.80;;;0.87;;
43146;SDS011;28752;48.266;7.402;2022-10-31T01:07:46;3.10;;;0.75;;
43146;SDS011;28752;48.266;7.402;2022-10-31T01:10:11;2.80;;;1.37;;
43146;SDS011;28752;48.266;7.402;2022-10-31T01:12:37;3.55;;;1.92;;
43146;SDS011;28752;48.266;7.402;2022-10-31T01:15:04;2.50;;;1.25;;
43146;SDS011;28752;48.266;7.402;2022-10-31T01:17:30;5.30;;;1.38;;
43146;SDS011;28752;48.266;7.402;2022-10-31T01:19:55;1.57;;;0.77;;
43146;SDS011;28752;48.266;7.402;2022-10-31T01:22:20;3.17;;;1.37;;
43146;SDS011;28752;48.266;7.402;2022-10-31T01:24:46;4.17;;;1.10;;
43146;SDS011;28752;48.266;7.402;2022-10-31T01:27:11;2.97;;;1.10;;
43146;SDS011;28752;48.266;7.402;2022-10-31T01:29:37;2.07;;;1.03;;
43146;SDS011;28752;48.266;7.402;2022-10-31T01:32:02;2.13;;;0.70;;
43146;SDS011;28752;48.266;7.402;2022-10-31T01:34:28;2.30;;;1.10;;
43146;SDS011;28752;48.266;7.402;2022-10-31T01:36:53;1.98;;;0.90;;
43146;SDS011;28752;48.266;7.402;2022-10-31T01:39:19;1.53;;;1.00;;
43146;SDS011;28752;48.266;7.402;2022-10-31T01:41:46;2.92;;;1.25;;
43146;SDS011;28752;48.266;7.402;2022-10-31T01:46:40;2.80;;;0.70;;
43146;SDS011;28752;48.266;7.402;2022-10-31T01:49:14;3.80;;;1.10;;
43146;SDS011;28752;48.266;7.402;2022-10-31T01:51:48;1.85;;;0.82;;
43146;SDS011;28752;48.266;7.402;2022-10-31T01:54:19;2.20;;;1.23;;
43146;SDS011;28752;48.266;7.402;2022-10-31T01:56:49;3.00;;;1.85;;
43146;SDS011;28752;48.266;7.402;2022-10-31T01:59:19;2.53;;;1.30;;
43146;SDS011;28752;48.266;7.402;2022-10-31T02:01:46;2.75;;;0.93;;
43146;SDS011;28752;48.266;7.402;2022-10-31T02:04:12;2.67;;;1.10;;
43146;SDS011;28752;48.266;7.402;2022-10-31T02:06:44;3.83;;;1.60;;
43146;SDS011;28752;48.266;7.402;2022-10-31T02:09:14;3.35;;;0.95;;
43146;SDS011;28752;48.266;7.402;2022-10-31T02:11:40;5.40;;;1.80;;
43146;SDS011;28752;48.266;7.402;2022-10-31T02:14:07;5.20;;;2.15;;
43146;SDS011;28752;48.266;7.402;2022-10-31T02:16:32;4.33;;;1.73;;
43146;SDS011;28752;48.266;7.402;2022-10-31T02:18:58;3.90;;;1.80;;
43146;SDS011;28752;48.266;7.402;2022-10-31T02:21:25;4.90;;;2.07;;
43146;SDS011;28752;48.266;7.402;2022-10-31T02:24:24;4.70;;;1.92;;
43146;SDS011;28752;48.266;7.402;2022-10-31T02:28:18;5.65;;;2.05;;
43146;SDS011;28752;48.266;7.402;2022-10-31T02:30:52;3.40;;;1.20;;
43146;SDS011;28752;48.266;7.402;2022-10-31T02:33:41;2.17;;;0.93;;
43146;SDS011;28752;48.266;7.402;2022-10-31T02:38:46;4.70;;;1.40;;
43146;SDS011;28752;48.266;7.402;2022-10-31T02:41:21;2.22;;;1.00;;
43146;SDS011;28752;48.266;7.402;2022-10-31T02:46:59;1.27;;;0.60;;
43146;SDS011;28752;48.266;7.402;2022-10-31T02:49:45;3.50;;;1.63;;
43146;SDS011;28752;48.266;7.402;2022-10-31T02:54:44;3.47;;;1.67;;
43146;SDS011;28752;48.266;7.402;2022-10-31T02:57:11;2.13;;;0.88;;
43146;SDS011;28752;48.266;7.402;2022-10-31T02:59:39;5.43;;;1.63;;
43146;SDS011;28752;48.266;7.402;2022-10-31T03:07:25;6.00;;;1.70;;
43146;SDS011;28752;48.266;7.402;2022-10-31T03:10:11;2.40;;;1.15;;
43146;SDS011;28752;48.266;7.402;2022-10-31T03:12:51;5.03;;;1.52;;
43146;SDS011;28752;48.266;7.402;2022-10-31T03:15:30;5.88;;;1.83;;
43146;SDS011;28752;48.266;7.402;2022-10-31T03:20:29;2.40;;;0.85;;
43146;SDS011;28752;48.266;7.402;2022-10-31T03:25:29;6.00;;;1.35;;
43146;SDS011;28752;48.266;7.402;2022-10-31T03:27:56;4.90;;;2.28;;
43146;SDS011;28752;48.266;7.402;2022-10-31T03:30:26;5.47;;;1.48;;
43146;SDS011;28752;48.266;7.402;2022-10-31T03:32:52;2.22;;;1.10;;
43146;SDS011;28752;48.266;7.402;2022-10-31T03:35:20;3.10;;;1.52;;
43146;SDS011;28752;48.266;7.402;2022-10-31T03:37:49;2.92;;;1.02;;
43146;SDS011;28752;48.266;7.402;2022-10-31T03:40:17;2.85;;;1.30;;
43146;SDS011;28752;48.266;7.402;2022-10-31T03:42:51;2.83;;;1.83;;
43146;SDS011;28752;48.266;7.402;2022-10-31T03:45:22;7.97;;;1.63;;
43146;SDS011;28752;48.266;7.402;2022-10-31T03:47:51;4.57;;;1.52;;
43146;SDS011;28752;48.266;7.402;2022-10-31T03:50:19;2.25;;;1.17;;
43146;SDS011;28752;48.266;7.402;2022-10-31T03:52:48;1.80;;;1.27;;
43146;SDS011;28752;48.266;7.402;2022-10-31T03:55:26;5.28;;;2.42;;
43146;SDS011;28752;48.266;7.402;2022-10-31T03:58:06;2.30;;;1.17;;
43146;SDS011;28752;48.266;7.402;2022-10-31T04:00:36;4.65;;;1.67;;
43146;SDS011;28752;48.266;7.402;2022-10-31T04:05:39;3.60;;;1.13;;
43146;SDS011;28752;48.266;7.402;2022-10-31T04:08:08;4.18;;;1.50;;
43146;SDS011;28752;48.266;7.402;2022-10-31T04:10:38;7.60;;;1.70;;
43146;SDS011;28752;48.266;7.402;2022-10-31T04:13:09;3.22;;;1.38;;
43146;SDS011;28752;48.266;7.402;2022-10-31T04:15:40;3.05;;;1.55;;
43146;SDS011;28752;48.266;7.402;2022-10-31T04:18:07;3.78;;;1.42;;
43146;SDS011;28752;48.266;7.402;2022-10-31T04:20:37;3.23;;;1.00;;
43146;SDS011;28752;48.266;7.402;2022-10-31T04:23:04;3.78;;;1.65;;
43146;SDS011;28752;48.266;7.402;2022-10-31T04:25:35;5.10;;;2.47;;
43146;SDS011;28752;48.266;7.402;2022-10-31T04:28:01;3.43;;;1.83;;
43146;SDS011;28752;48.266;7.402;2022-10-31T04:30:26;4.37;;;1.30;;
43146;SDS011;28752;48.266;7.402;2022-10-31T04:32:51;2.27;;;0.93;;
43146;SDS011;28752;48.266;7.402;2022-10-31T04:35:17;2.67;;;1.00;;
43146;SDS011;28752;48.266;7.402;2022-10-31T04:37:42;2.57;;;1.13;;
43146;SDS011;28752;48.266;7.402;2022-10-31T04:40:08;2.87;;;1.53;;
43146;SDS011;28752;48.266;7.402;2022-10-31T04:42:33;1.40;;;0.95;;
43146;SDS011;28752;48.266;7.402;2022-10-31T04:44:59;3.97;;;1.40;;
43146;SDS011;28752;48.266;7.402;2022-10-31T04:47:24;5.17;;;1.70;;
43146;SDS011;28752;48.266;7.402;2022-10-31T04:49:49;2.60;;;1.33;;
43146;SDS011;28752;48.266;7.402;2022-10-31T04:52:15;4.37;;;1.47;;
43146;SDS011;28752;48.266;7.402;2022-10-31T04:54:40;5.97;;;2.50;;
43146;SDS011;28752;48.266;7.402;2022-10-31T04:57:05;3.67;;;1.23;;
43146;SDS011;28752;48.266;7.402;2022-10-31T04:59:31;5.27;;;2.00;;
43146;SDS011;28752;48.266;7.402;2022-10-31T05:01:56;2.60;;;1.33;;
43146;SDS011;28752;48.266;7.402;2022-10-31T05:04:21;2.93;;;2.17;;
43146;SDS011;28752;48.266;7.402;2022-10-31T05:06:47;2.72;;;1.20;;
43146;SDS011;28752;48.266;7.402;2022-10-31T05:09:12;3.00;;;1.53;;
43146;SDS011;28752;48.266;7.402;2022-10-31T05:11:38;5.27;;;2.53;;
43146;SDS011;28752;48.266;7.402;2022-10-31T05:14:03;2.83;;;1.17;;
43146;SDS011;28752;48.266;7.402;2022-10-31T05:16:28;3.07;;;1.33;;
43146;SDS011;28752;48.266;7.402;2022-10-31T05:18:54;2.83;;;1.30;;
43146;SDS011;28752;48.266;7.402;2022-10-31T05:21:19;5.10;;;1.47;;
43146;SDS011;28752;48.266;7.402;2022-10-31T05:23:45;2.63;;;1.52;;
43146;SDS011;28752;48.266;7.402;2022-10-31T05:26:10;3.63;;;1.67;;
43146;SDS011;28752;48.266;7.402;2022-10-31T05:28:35;3.70;;;1.37;;
43146;SDS011;28752;48.266;7.402;2022-10-31T05:31:01;2.13;;;1.40;;
43146;SDS011;28752;48.266;7.402;2022-10-31T05:33:26;3.53;;;1.17;;
43146;SDS011;28752;48.266;7.402;2022-10-31T05:35:52;2.40;;;0.50;;
43146;SDS011;28752;48.266;7.402;2022-10-31T05:38:17;1.00;;;0.70;;
43146;SDS011;28752;48.266;7.402;2022-10-31T05:40:42;3.37;;;1.20;;
43146;SDS011;28752;48.266;7.402;2022-10-31T05:43:08;1.77;;;0.83;;
43146;SDS011;28752;48.266;7.402;2022-10-31T05:45:33;3.43;;;1.83;;
43146;SDS011;28752;48.266;7.402;2022-10-31T05:47:59;2.27;;;1.60;;
43146;SDS011;28752;48.266;7.402;2022-10-31T05:50:26;3.20;;;1.00;;
43146;SDS011;28752;48.266;7.402;2022-10-31T05:52:59;1.65;;;0.98;;
43146;SDS011;28752;48.266;7.402;2022-10-31T05:55:26;2.13;;;1.05;;
43146;SDS011;28752;48.266;7.402;2022-10-31T05:57:52;3.10;;;1.17;;
43146;SDS011;28752;48.266;7.402;2022-10-31T06:00:18;3.05;;;1.33;;
43146;SDS011;28752;48.266;7.402;2022-10-31T06:02:44;3.50;;;1.10;;
43146;SDS011;28752;48.266;7.402;2022-10-31T06:05:10;1.07;;;0.80;;
43146;SDS011;28752;48.266;7.402;2022-10-31T06:07:35;2.47;;;1.03;;
43146;SDS011;28752;48.266;7.402;2022-10-31T06:10:02;8.75;;;1.52;;
43146;SDS011;28752;48.266;7.402;2022-10-31T06:12:30;1.95;;;1.17;;
43146;SDS011;28752;48.266;7.402;2022-10-31T06:14:56;2.60;;;1.00;;
43146;SDS011;28752;48.266;7.402;2022-10-31T06:17:21;1.73;;;0.90;;
43146;SDS011;28752;48.266;7.402;2022-10-31T06:19:46;1.90;;;1.10;;
43146;SDS011;28752;48.266;7.402;2022-10-31T06:22:12;2.17;;;1.37;;
43146;SDS011;28752;48.266;7.402;2022-10-31T06:24:37;3.47;;;1.63;;
43146;SDS011;28752;48.266;7.402;2022-10-31T06:27:03;3.08;;;1.52;;
43146;SDS011;28752;48.266;7.402;2022-10-31T06:29:29;2.45;;;1.02;;
43146;SDS011;28752;48.266;7.402;2022-10-31T06:31:54;3.27;;;1.10;;
43146;SDS011;28752;48.266;7.402;2022-10-31T06:34:20;2.50;;;1.50;;
43146;SDS011;28752;48.266;7.402;2022-10-31T06:36:45;1.97;;;0.87;;
43146;SDS011;28752;48.266;7.402;2022-10-31T06:39:11;2.40;;;1.15;;
43146;SDS011;28752;48.266;7.402;2022-10-31T06:41:36;8.87;;;1.50;;
43146;SDS011;28752;48.266;7.402;2022-10-31T06:44:02;3.60;;;1.53;;
43146;SDS011;28752;48.266;7.402;2022-10-31T06:46:27;4.35;;;1.35;;
43146;SDS011;28752;48.266;7.402;2022-10-31T06:48:53;1.70;;;1.10;;
43146;SDS011;28752;48.266;7.402;2022-10-31T06:51:18;2.53;;;1.10;;
43146;SDS011;28752;48.266;7.402;2022-10-31T06:53:43;5.13;;;2.60;;
43146;SDS011;28752;48.266;7.402;2022-10-31T06:56:09;4.20;;;1.47;;
43146;SDS011;28752;48.266;7.402;2022-10-31T06:58:34;2.77;;;1.17;;
43146;SDS011;28752;48.266;7.402;2022-10-31T07:01:00;3.57;;;1.63;;
43146;SDS011;28752;48.266;7.402;2022-10-31T07:03:26;2.20;;;1.05;;
43146;SDS011;28752;48.266;7.402;2022-10-31T07:05:51;2.23;;;1.10;;
43146;SDS011;28752;48.266;7.402;2022-10-31T07:08:16;2.47;;;1.03;;
43146;SDS011;28752;48.266;7.402;2022-10-31T07:10:42;2.07;;;1.33;;
43146;SDS011;28752;48.266;7.402;2022-10-31T07:13:12;2.92;;;1.65;;
43146;SDS011;28752;48.266;7.402;2022-10-31T07:15:39;3.08;;;1.45;;
43146;SDS011;28752;48.266;7.402;2022-10-31T07:18:06;2.15;;;1.00;;
43146;SDS011;28752;48.266;7.402;2022-10-31T07:20:33;4.05;;;1.52;;
43146;SDS011;28752;48.266;7.402;2022-10-31T07:22:59;2.58;;;0.80;;
43146;SDS011;28752;48.266;7.402;2022-10-31T07:25:25;3.75;;;1.20;;
43146;SDS011;28752;48.266;7.402;2022-10-31T07:27:51;2.58;;;1.25;;
43146;SDS011;28752;48.266;7.402;2022-10-31T07:30:17;5.53;;;2.57;;
43146;SDS011;28752;48.266;7.402;2022-10-31T07:32:47;4.18;;;1.50;;
43146;SDS011;28752;48.266;7.402;2022-10-31T07:35:15;3.13;;;1.27;;
43146;SDS011;28752;48.266;7.402;2022-10-31T07:37:43;6.30;;;2.15;;
43146;SDS011;28752;48.266;7.402;2022-10-31T07:40:08;3.40;;;1.73;;
43146;SDS011;28752;48.266;7.402;2022-10-31T07:45:04;6.80;;;2.22;;
43146;SDS011;28752;48.266;7.402;2022-10-31T07:47:37;3.63;;;1.83;;
43146;SDS011;28752;48.266;7.402;2022-10-31T07:50:11;4.40;;;2.05;;
43146;SDS011;28752;48.266;7.402;2022-10-31T07:52:38;3.65;;;1.65;;
43146;SDS011;28752;48.266;7.402;2022-10-31T07:55:04;3.85;;;1.90;;
43146;SDS011;28752;48.266;7.402;2022-10-31T07:57:30;3.88;;;1.75;;
43146;SDS011;28752;48.266;7.402;2022-10-31T07:59:56;4.67;;;2.67;;
43146;SDS011;28752;48.266;7.402;2022-10-31T08:02:21;4.53;;;2.47;;
43146;SDS011;28752;48.266;7.402;2022-10-31T08:04:47;6.60;;;2.57;;
43146;SDS011;28752;48.266;7.402;2022-10-31T08:07:12;4.63;;;1.65;;
43146;SDS011;28752;48.266;7.402;2022-10-31T08:09:38;6.13;;;2.40;;
43146;SDS011;28752;48.266;7.402;2022-10-31T08:12:03;4.03;;;1.80;;
43146;SDS011;28752;48.266;7.402;2022-10-31T08:14:29;3.92;;;1.75;;
43146;SDS011;28752;48.266;7.402;2022-10-31T08:16:54;3.90;;;1.90;;
43146;SDS011;28752;48.266;7.402;2022-10-31T08:19:20;4.47;;;2.30;;
43146;SDS011;28752;48.266;7.402;2022-10-31T08:21:45;6.27;;;2.67;;
43146;SDS011;28752;48.266;7.402;2022-10-31T08:24:10;4.17;;;1.97;;
43146;SDS011;28752;48.266;7.402;2022-10-31T08:26:36;4.77;;;2.67;;
43146;SDS011;28752;48.266;7.402;2022-10-31T08:29:01;3.42;;;1.92;;
43146;SDS011;28752;48.266;7.402;2022-10-31T08:31:27;6.07;;;1.80;;
43146;SDS011;28752;48.266;7.402;2022-10-31T08:34:05;4.72;;;2.15;;
43146;SDS011;28752;48.266;7.402;2022-10-31T08:36:30;4.97;;;2.13;;
43146;SDS011;28752;48.266;7.402;2022-10-31T08:38:56;3.83;;;1.70;;
43146;SDS011;28752;48.266;7.402;2022-10-31T08:41:21;4.83;;;1.90;;
43146;SDS011;28752;48.266;7.402;2022-10-31T08:43:47;3.67;;;1.83;;
43146;SDS011;28752;48.266;7.402;2022-10-31T08:46:12;3.33;;;2.00;;
43146;SDS011;28752;48.266;7.402;2022-10-31T08:48:38;5.35;;;2.20;;
43146;SDS011;28752;48.266;7.402;2022-10-31T08:51:03;5.87;;;2.23;;
43146;SDS011;28752;48.266;7.402;2022-10-31T08:53:29;4.90;;;2.45;;
43146;SDS011;28752;48.266;7.402;2022-10-31T08:55:55;5.60;;;2.63;;
43146;SDS011;28752;48.266;7.402;2022-10-31T09:03:14;4.45;;;1.73;;
43146;SDS011;28752;48.266;7.402;2022-10-31T09:05:41;3.30;;;1.42;;
43146;SDS011;28752;48.266;7.402;2022-10-31T09:08:07;4.20;;;2.13;;
43146;SDS011;28752;48.266;7.402;2022-10-31T09:10:33;4.68;;;2.33;;
43146;SDS011;28752;48.266;7.402;2022-10-31T09:13:03;3.65;;;1.98;;
43146;SDS011;28752;48.266;7.402;2022-10-31T09:15:31;4.80;;;2.20;;
43146;SDS011;28752;48.266;7.402;2022-10-31T09:17:58;6.00;;;2.58;;
43146;SDS011;28752;48.266;7.402;2022-10-31T09:20:23;5.43;;;2.43;;
43146;SDS011;28752;48.266;7.402;2022-10-31T09:22:55;5.00;;;2.40;;
43146;SDS011;28752;48.266;7.402;2022-10-31T09:25:24;4.53;;;1.92;;
43146;SDS011;28752;48.266;7.402;2022-10-31T09:27:49;5.25;;;2.38;;
43146;SDS011;28752;48.266;7.402;2022-10-31T09:30:15;5.03;;;1.93;;
43146;SDS011;28752;48.266;7.402;2022-10-31T09:32:40;5.20;;;2.20;;
43146;SDS011;28752;48.266;7.402;2022-10-31T09:35:06;4.07;;;2.03;;
43146;SDS011;28752;48.266;7.402;2022-10-31T09:37:31;5.70;;;2.28;;
43146;SDS011;28752;48.266;7.402;2022-10-31T09:39:57;6.67;;;2.37;;
43146;SDS011;28752;48.266;7.402;2022-10-31T09:45:15;5.47;;;2.25;;
43146;SDS011;28752;48.266;7.402;2022-10-31T09:47:50;5.20;;;2.17;;
43146;SDS011;28752;48.266;7.402;2022-10-31T09:50:29;4.68;;;2.15;;
43146;SDS011;28752;48.266;7.402;2022-10-31T09:55:39;3.80;;;2.38;;
43146;SDS011;28752;48.266;7.402;2022-10-31T09:58:13;5.38;;;2.38;;
43146;SDS011;28752;48.266;7.402;2022-10-31T10:00:42;5.57;;;2.45;;
43146;SDS011;28752;48.266;7.402;2022-10-31T10:08:38;4.25;;;1.83;;
43146;SDS011;28752;48.266;7.402;2022-10-31T10:25:24;26.35;;;2.95;;
43146;SDS011;28752;48.266;7.402;2022-10-31T10:36:57;5.50;;;1.95;;
43146;SDS011;28752;48.266;7.402;2022-10-31T10:39:30;9.55;;;2.95;;
43146;SDS011;28752;48.266;7.402;2022-10-31T10:42:01;6.63;;;2.42;;
43146;SDS011;28752;48.266;7.402;2022-10-31T10:44:54;14.38;;;2.60;;
43146;SDS011;28752;48.266;7.402;2022-10-31T10:47:41;6.53;;;2.95;;
43146;SDS011;28752;48.266;7.402;2022-10-31T10:50:18;6.50;;;3.05;;
43146;SDS011;28752;48.266;7.402;2022-10-31T10:52:57;7.70;;;3.63;;
43146;SDS011;28752;48.266;7.402;2022-10-31T10:55:29;6.05;;;2.58;;
43146;SDS011;28752;48.266;7.402;2022-10-31T10:58:11;5.35;;;2.33;;
43146;SDS011;28752;48.266;7.402;2022-10-31T11:00:40;4.93;;;2.22;;
43146;SDS011;28752;48.266;7.402;2022-10-31T11:03:07;5.35;;;2.17;;
43146;SDS011;28752;48.266;7.402;2022-10-31T11:08:25;5.05;;;2.25;;
43146;SDS011;28752;48.266;7.402;2022-10-31T11:11:40;4.97;;;2.22;;
43146;SDS011;28752;48.266;7.402;2022-10-31T11:14:13;6.65;;;2.97;;
43146;SDS011;28752;48.266;7.402;2022-10-31T11:16:45;4.53;;;2.05;;
43146;SDS011;28752;48.266;7.402;2022-10-31T11:19:20;7.45;;;1.90;;
43146;SDS011;28752;48.266;7.402;2022-10-31T11:21:48;5.53;;;2.00;;
43146;SDS011;28752;48.266;7.402;2022-10-31T11:24:18;3.83;;;1.95;;
43146;SDS011;28752;48.266;7.402;2022-10-31T11:26:48;4.70;;;2.80;;
43146;SDS011;28752;48.266;7.402;2022-10-31T11:29:22;5.70;;;2.40;;
43146;SDS011;28752;48.266;7.402;2022-10-31T11:31:53;6.63;;;2.40;;
43146;SDS011;28752;48.266;7.402;2022-10-31T11:34:27;5.45;;;2.45;;
43146;SDS011;28752;48.266;7.402;2022-10-31T11:39:43;3.92;;;2.00;;
43146;SDS011;28752;48.266;7.402;2022-10-31T11:42:10;4.95;;;2.35;;
43146;SDS011;28752;48.266;7.402;2022-10-31T11:44:36;6.15;;;2.55;;
43146;SDS011;28752;48.266;7.402;2022-10-31T11:47:09;4.57;;;1.45;;
43146;SDS011;28752;48.266;7.402;2022-10-31T11:49:41;4.97;;;2.22;;
43146;SDS011;28752;48.266;7.402;2022-10-31T11:52:19;5.05;;;1.85;;
43146;SDS011;28752;48.266;7.402;2022-10-31T11:54:48;7.22;;;1.63;;
43146;SDS011;28752;48.266;7.402;2022-10-31T11:57:33;4.03;;;1.45;;
43146;SDS011;28752;48.266;7.402;2022-10-31T12:00:27;5.85;;;1.80;;
43146;SDS011;28752;48.266;7.402;2022-10-31T12:03:06;3.67;;;1.65;;
43146;SDS011;28752;48.266;7.402;2022-10-31T12:05:35;4.45;;;1.85;;
43146;SDS011;28752;48.266;7.402;2022-10-31T12:08:04;3.65;;;1.58;;
43146;SDS011;28752;48.266;7.402;2022-10-31T12:10:35;3.13;;;1.83;;
43146;SDS011;28752;48.266;7.402;2022-10-31T12:13:22;3.70;;;1.98;;
43146;SDS011;28752;48.266;7.402;2022-10-31T12:15:55;4.28;;;1.52;;
43146;SDS011;28752;48.266;7.402;2022-10-31T12:32:33;2.97;;;1.23;;
43146;SDS011;28752;48.266;7.402;2022-10-31T12:35:13;2.30;;;1.13;;
43146;SDS011;28752;48.266;7.402;2022-10-31T12:56:56;3.53;;;1.30;;
43146;SDS011;28752;48.266;7.402;2022-10-31T13:02:32;5.72;;;2.10;;
43146;SDS011;28752;48.266;7.402;2022-10-31T13:04:58;4.38;;;1.65;;
43146;SDS011;28752;48.266;7.402;2022-10-31T13:07:30;3.80;;;1.52;;
43146;SDS011;28752;48.266;7.402;2022-10-31T13:10:02;3.90;;;1.80;;
43146;SDS011;28752;48.266;7.402;2022-10-31T13:12:34;2.67;;;1.38;;
43146;SDS011;28752;48.266;7.402;2022-10-31T13:15:03;3.92;;;2.00;;
43146;SDS011;28752;48.266;7.402;2022-10-31T13:17:45;3.67;;;1.73;;
43146;SDS011;28752;48.266;7.402;2022-10-31T13:20:25;4.15;;;2.22;;
43146;SDS011;28752;48.266;7.402;2022-10-31T13:23:02;3.30;;;1.45;;
43146;SDS011;28752;48.266;7.402;2022-10-31T13:25:37;4.68;;;2.13;;
43146;SDS011;28752;48.266;7.402;2022-10-31T13:30:56;2.58;;;1.23;;
43146;SDS011;28752;48.266;7.402;2022-10-31T13:35:54;3.42;;;1.45;;
43146;SDS011;28752;48.266;7.402;2022-10-31T13:38:36;3.03;;;1.95;;
43146;SDS011;28752;48.266;7.402;2022-10-31T13:48:58;4.23;;;2.37;;
43146;SDS011;28752;48.266;7.402;2022-10-31T13:51:25;4.32;;;2.75;;
43146;SDS011;28752;48.266;7.402;2022-10-31T13:56:24;5.55;;;2.00;;
43146;SDS011;28752;48.266;7.402;2022-10-31T13:59:04;6.32;;;2.50;;
43146;SDS011;28752;48.266;7.402;2022-10-31T14:01:49;4.97;;;2.28;;
43146;SDS011;28752;48.266;7.402;2022-10-31T14:04:20;4.05;;;2.65;;
43146;SDS011;28752;48.266;7.402;2022-10-31T14:06:56;3.20;;;1.40;;
43146;SDS011;28752;48.266;7.402;2022-10-31T14:11:55;4.27;;;2.07;;
43146;SDS011;28752;48.266;7.402;2022-10-31T14:14:24;15.30;;;2.63;;
43146;SDS011;28752;48.266;7.402;2022-10-31T14:16:55;4.70;;;2.15;;
43146;SDS011;28752;48.266;7.402;2022-10-31T14:19:23;4.18;;;1.52;;
43146;SDS011;28752;48.266;7.402;2022-10-31T14:21:50;3.95;;;1.80;;
43146;SDS011;28752;48.266;7.402;2022-10-31T14:26:54;3.70;;;1.95;;
43146;SDS011;28752;48.266;7.402;2022-10-31T14:29:30;7.68;;;2.70;;
43146;SDS011;28752;48.266;7.402;2022-10-31T14:32:13;3.58;;;1.88;;
43146;SDS011;28752;48.266;7.402;2022-10-31T14:40:18;4.17;;;2.03;;
43146;SDS011;28752;48.266;7.402;2022-10-31T14:50:58;6.55;;;2.22;;
43146;SDS011;28752;48.266;7.402;2022-10-31T14:53:35;5.20;;;2.05;;
43146;SDS011;28752;48.266;7.402;2022-10-31T14:56:10;4.25;;;2.03;;
43146;SDS011;28752;48.266;7.402;2022-10-31T14:58:40;3.67;;;1.70;;
43146;SDS011;28752;48.266;7.402;2022-10-31T15:03:58;4.17;;;1.77;;
43146;SDS011;28752;48.266;7.402;2022-10-31T15:06:30;4.88;;;2.78;;
43146;SDS011;28752;48.266;7.402;2022-10-31T15:09:05;5.38;;;1.85;;
43146;SDS011;28752;48.266;7.402;2022-10-31T15:11:35;5.50;;;1.93;;
43146;SDS011;28752;48.266;7.402;2022-10-31T15:14:14;3.05;;;1.98;;
43146;SDS011;28752;48.266;7.402;2022-10-31T15:16:47;4.38;;;2.47;;
43146;SDS011;28752;48.266;7.402;2022-10-31T15:19:15;3.28;;;1.83;;
43146;SDS011;28752;48.266;7.402;2022-10-31T15:21:46;7.45;;;2.05;;
43146;SDS011;28752;48.266;7.402;2022-10-31T15:24:12;5.60;;;2.43;;
43146;SDS011;28752;48.266;7.402;2022-10-31T15:26:43;4.05;;;2.13;;
43146;SDS011;28752;48.266;7.402;2022-10-31T15:29:17;5.05;;;2.08;;
43146;SDS011;28752;48.266;7.402;2022-10-31T15:31:51;6.32;;;2.65;;
43146;SDS011;28752;48.266;7.402;2022-10-31T15:34:41;4.90;;;2.22;;
43146;SDS011;28752;48.266;7.402;2022-10-31T15:39:38;7.35;;;2.88;;
43146;SDS011;28752;48.266;7.402;2022-10-31T15:42:04;6.38;;;2.80;;
43146;SDS011;28752;48.266;7.402;2022-10-31T15:44:40;7.00;;;3.25;;
43146;SDS011;28752;48.266;7.402;2022-10-31T15:47:22;6.70;;;2.40;;
43146;SDS011;28752;48.266;7.402;2022-10-31T15:49:53;7.15;;;2.25;;
43146;SDS011;28752;48.266;7.402;2022-10-31T15:55:02;4.75;;;2.15;;
43146;SDS011;28752;48.266;7.402;2022-10-31T15:57:30;4.53;;;2.05;;
43146;SDS011;28752;48.266;7.402;2022-10-31T15:59:56;5.72;;;2.53;;
43146;SDS011;28752;48.266;7.402;2022-10-31T16:02:23;4.15;;;2.35;;
43146;SDS011;28752;48.266;7.402;2022-10-31T16:04:55;4.53;;;1.92;;
43146;SDS011;28752;48.266;7.402;2022-10-31T16:07:26;5.03;;;3.15;;
43146;SDS011;28752;48.266;7.402;2022-10-31T16:09:59;8.48;;;3.78;;
43146;SDS011;28752;48.266;7.402;2022-10-31T16:12:35;4.25;;;2.08;;
43146;SDS011;28752;48.266;7.402;2022-10-31T16:17:29;6.10;;;2.78;;
43146;SDS011;28752;48.266;7.402;2022-10-31T16:22:29;4.78;;;2.55;;
43146;SDS011;28752;48.266;7.402;2022-10-31T16:25:01;5.28;;;2.75;;
43146;SDS011;28752;48.266;7.402;2022-10-31T16:27:38;4.55;;;2.22;;
43146;SDS011;28752;48.266;7.402;2022-10-31T16:33:20;6.95;;;2.47;;
43146;SDS011;28752;48.266;7.402;2022-10-31T16:35:51;4.70;;;2.53;;
43146;SDS011;28752;48.266;7.402;2022-10-31T16:38:17;6.28;;;2.60;;
43146;SDS011;28752;48.266;7.402;2022-10-31T16:40:42;6.60;;;3.20;;
43146;SDS011;28752;48.266;7.402;2022-10-31T16:43:10;5.13;;;2.65;;
43146;SDS011;28752;48.266;7.402;2022-10-31T16:45:42;5.60;;;2.50;;
43146;SDS011;28752;48.266;7.402;2022-10-31T16:48:14;4.32;;;2.50;;
43146;SDS011;28752;48.266;7.402;2022-10-31T16:50:42;5.85;;;3.15;;
43146;SDS011;28752;48.266;7.402;2022-10-31T16:53:09;6.50;;;3.53;;
43146;SDS011;28752;48.266;7.402;2022-10-31T16:55:41;10.05;;;3.22;;
43146;SDS011;28752;48.266;7.402;2022-10-31T17:00:41;5.05;;;2.38;;
43146;SDS011;28752;48.266;7.402;2022-10-31T17:03:07;5.18;;;2.30;;
43146;SDS011;28752;48.266;7.402;2022-10-31T17:05:33;10.30;;;2.03;;
43146;SDS011;28752;48.266;7.402;2022-10-31T17:07:59;5.43;;;2.85;;
43146;SDS011;28752;48.266;7.402;2022-10-31T17:10:25;5.33;;;2.70;;
43146;SDS011;28752;48.266;7.402;2022-10-31T17:15:21;4.57;;;1.77;;
43146;SDS011;28752;48.266;7.402;2022-10-31T17:17:48;5.35;;;2.25;;
43146;SDS011;28752;48.266;7.402;2022-10-31T17:22:49;6.78;;;2.08;;
43146;SDS011;28752;48.266;7.402;2022-10-31T17:25:16;4.85;;;2.22;;
43146;SDS011;28752;48.266;7.402;2022-10-31T17:27:43;5.38;;;3.10;;
43146;SDS011;28752;48.266;7.402;2022-10-31T17:30:10;4.57;;;2.83;;
43146;SDS011;28752;48.266;7.402;2022-10-31T17:32:37;6.90;;;3.25;;
43146;SDS011;28752;48.266;7.402;2022-10-31T17:35:02;7.90;;;4.38;;
43146;SDS011;28752;48.266;7.402;2022-10-31T17:37:28;16.23;;;3.67;;
43146;SDS011;28752;48.266;7.402;2022-10-31T17:39:53;6.40;;;2.93;;
43146;SDS011;28752;48.266;7.402;2022-10-31T17:42:18;6.00;;;2.73;;
43146;SDS011;28752;48.266;7.402;2022-10-31T17:44:44;5.70;;;2.88;;
43146;SDS011;28752;48.266;7.402;2022-10-31T17:47:10;5.47;;;2.33;;
43146;SDS011;28752;48.266;7.402;2022-10-31T17:49:36;7.90;;;2.97;;